sensor_id;sensor_type;location;lat;lon;timestamp;temperature;humidity
10314;DHT22;5202;49.138;10.090;2023-09-08T00:00:29;14.90;99.90
10314;DHT22;5202;49.138;10.090;2023-09-08T00:03:23;14.80;99.90
10314;DHT22;5202;49.138;10.090;2023-09-08T00:06:00;14.80;99.90
10314;DHT22;5202;49.138;10.090;2023-09-08T00:08:36;14.70;99.90
10314;DHT22;5202;49.138;10.090;2023-09-08T00:11:04;14.60;99.90
10314;DHT22;5202;49.138;10.090;2023-09-08T00:13:34;14.60;99.90
10314;DHT22;5202;49.138;10.090;2023-09-08T00:16:04;14.50;99.90
10314;DHT22;5202;49.138;10.090;2023-09-08T00:18:34;14.50;99.90
10314;DHT22;5202;49.138;10.090;2023-09-08T00:21:03;14.50;99.90
10314;DHT22;5202;49.138;10.090;2023-09-08T00:23:31;14.40;99.90
10314;DHT22;5202;49.138;10.090;2023-09-08T00:25:59;14.40;99.90
10314;DHT22;5202;49.138;10.090;2023-09-08T00:28:28;14.30;99.90
10314;DHT22;5202;49.138;10.090;2023-09-08T00:30:58;14.30;99.90
10314;DHT22;5202;49.138;10.090;2023-09-08T00:33:29;14.20;99.90
10314;DHT22;5202;49.138;10.090;2023-09-08T00:35:57;14.20;99.90
10314;DHT22;5202;49.138;10.090;2023-09-08T00:38:26;14.00;99.90
10314;DHT22;5202;49.138;10.090;2023-09-08T00:40:54;14.00;99.90
10314;DHT22;5202;49.138;10.090;2023-09-08T00:43:23;14.00;99.90
10314;DHT22;5202;49.138;10.090;2023-09-08T00:45:52;14.00;99.90
10314;DHT22;5202;49.138;10.090;2023-09-08T00:48:22;14.00;99.90
10314;DHT22;5202;49.138;10.090;2023-09-08T00:50:52;14.00;99.90
10314;DHT22;5202;49.138;10.090;2023-09-08T00:53:21;13.90;99.90
10314;DHT22;5202;49.138;10.090;2023-09-08T00:55:50;13.90;99.90
10314;DHT22;5202;49.138;10.090;2023-09-08T00:58:19;13.90;99.90
10314;DHT22;5202;49.138;10.090;2023-09-08T01:00:48;13.80;99.90
10314;DHT22;5202;49.138;10.090;2023-09-08T01:03:16;13.70;99.90
10314;DHT22;5202;49.138;10.090;2023-09-08T01:05:45;13.70;99.90
10314;DHT22;5202;49.138;10.090;2023-09-08T01:08:17;13.70;99.90
10314;DHT22;5202;49.138;10.090;2023-09-08T01:10:46;13.70;99.90
10314;DHT22;5202;49.138;10.090;2023-09-08T01:13:14;13.70;99.90
10314;DHT22;5202;49.138;10.090;2023-09-08T01:15:43;13.70;99.90
10314;DHT22;5202;49.138;10.090;2023-09-08T01:18:11;13.70;99.90
10314;DHT22;5202;49.138;10.090;2023-09-08T01:20:54;13.60;99.90
10314;DHT22;5202;49.138;10.090;2023-09-08T01:23:55;13.60;99.90
10314;DHT22;5202;49.138;10.090;2023-09-08T01:26:31;13.50;99.90
10314;DHT22;5202;49.138;10.090;2023-09-08T01:29:05;13.50;99.90
10314;DHT22;5202;49.138;10.090;2023-09-08T01:31:35;13.50;99.90
10314;DHT22;5202;49.138;10.090;2023-09-08T01:34:05;13.40;99.90
10314;DHT22;5202;49.138;10.090;2023-09-08T01:36:34;13.40;99.90
10314;DHT22;5202;49.138;10.090;2023-09-08T01:39:03;13.30;99.90
10314;DHT22;5202;49.138;10.090;2023-09-08T01:41:33;13.30;99.90
10314;DHT22;5202;49.138;10.090;2023-09-08T01:44:02;13.30;99.90
10314;DHT22;5202;49.138;10.090;2023-09-08T01:46:35;13.20;99.90
10314;DHT22;5202;49.138;10.090;2023-09-08T01:49:04;13.20;99.90
10314;DHT22;5202;49.138;10.090;2023-09-08T01:51:32;13.20;99.90
10314;DHT22;5202;49.138;10.090;2023-09-08T01:54:00;13.20;99.90
10314;DHT22;5202;49.138;10.090;2023-09-08T01:56:29;13.20;99.90
10314;DHT22;5202;49.138;10.090;2023-09-08T01:58:58;13.10;99.90
10314;DHT22;5202;49.138;10.090;2023-09-08T02:01:27;13.00;99.90
10314;DHT22;5202;49.138;10.090;2023-09-08T02:04:00;13.00;99.90
10314;DHT22;5202;49.138;10.090;2023-09-08T02:06:32;12.90;99.90
10314;DHT22;5202;49.138;10.090;2023-09-08T02:09:00;12.90;99.90
10314;DHT22;5202;49.138;10.090;2023-09-08T02:11:29;12.80;99.90
10314;DHT22;5202;49.138;10.090;2023-09-08T02:13:58;12.80;99.90
10314;DHT22;5202;49.138;10.090;2023-09-08T02:16:27;12.80;99.90
10314;DHT22;5202;49.138;10.090;2023-09-08T02:18:56;12.80;99.90
10314;DHT22;5202;49.138;10.090;2023-09-08T02:21:26;12.80;99.90
10314;DHT22;5202;49.138;10.090;2023-09-08T02:23:54;12.80;99.90
10314;DHT22;5202;49.138;10.090;2023-09-08T02:26:23;12.80;99.90
10314;DHT22;5202;49.138;10.090;2023-09-08T02:28:54;12.80;99.90
10314;DHT22;5202;49.138;10.090;2023-09-08T02:31:23;12.80;99.90
10314;DHT22;5202;49.138;10.090;2023-09-08T02:33:52;12.70;99.90
10314;DHT22;5202;49.138;10.090;2023-09-08T02:36:20;12.60;99.90
10314;DHT22;5202;49.138;10.090;2023-09-08T02:38:55;12.60;99.90
10314;DHT22;5202;49.138;10.090;2023-09-08T02:41:25;12.60;99.90
10314;DHT22;5202;49.138;10.090;2023-09-08T02:43:53;12.50;99.90
10314;DHT22;5202;49.138;10.090;2023-09-08T02:46:21;12.50;99.90
10314;DHT22;5202;49.138;10.090;2023-09-08T02:48:52;12.50;99.90
10314;DHT22;5202;49.138;10.090;2023-09-08T02:51:21;12.40;99.90
10314;DHT22;5202;49.138;10.090;2023-09-08T02:53:50;12.30;99.90
10314;DHT22;5202;49.138;10.090;2023-09-08T02:56:18;12.20;99.90
10314;DHT22;5202;49.138;10.090;2023-09-08T02:58:46;12.20;99.90
10314;DHT22;5202;49.138;10.090;2023-09-08T03:01:16;12.20;99.90
10314;DHT22;5202;49.138;10.090;2023-09-08T03:03:48;12.20;99.90
10314;DHT22;5202;49.138;10.090;2023-09-08T03:06:20;12.20;99.90
10314;DHT22;5202;49.138;10.090;2023-09-08T03:08:49;12.20;99.90
10314;DHT22;5202;49.138;10.090;2023-09-08T03:11:19;12.30;99.90
10314;DHT22;5202;49.138;10.090;2023-09-08T03:13:47;12.30;99.90
10314;DHT22;5202;49.138;10.090;2023-09-08T03:16:15;12.30;99.90
10314;DHT22;5202;49.138;10.090;2023-09-08T03:18:44;12.30;99.90
10314;DHT22;5202;49.138;10.090;2023-09-08T03:21:14;12.30;99.90
10314;DHT22;5202;49.138;10.090;2023-09-08T03:23:45;12.30;99.90
10314;DHT22;5202;49.138;10.090;2023-09-08T03:26:15;12.30;99.90
10314;DHT22;5202;49.138;10.090;2023-09-08T03:28:43;12.40;99.90
10314;DHT22;5202;49.138;10.090;2023-09-08T03:31:12;12.30;99.90
10314;DHT22;5202;49.138;10.090;2023-09-08T03:33:40;12.30;99.90
10314;DHT22;5202;49.138;10.090;2023-09-08T03:36:10;12.30;99.90
10314;DHT22;5202;49.138;10.090;2023-09-08T03:38:39;12.20;99.90
10314;DHT22;5202;49.138;10.090;2023-09-08T03:41:09;12.10;99.90
10314;DHT22;5202;49.138;10.090;2023-09-08T03:43:38;12.00;99.90
10314;DHT22;5202;49.138;10.090;2023-09-08T03:46:06;12.00;99.90
10314;DHT22;5202;49.138;10.090;2023-09-08T03:48:35;11.90;99.90
10314;DHT22;5202;49.138;10.090;2023-09-08T03:51:04;11.90;99.90
10314;DHT22;5202;49.138;10.090;2023-09-08T03:53:34;11.90;99.90
10314;DHT22;5202;49.138;10.090;2023-09-08T03:56:03;12.00;99.90
10314;DHT22;5202;49.138;10.090;2023-09-08T03:58:33;12.00;99.90
10314;DHT22;5202;49.138;10.090;2023-09-08T04:01:01;12.00;99.90
10314;DHT22;5202;49.138;10.090;2023-09-08T04:03:30;12.00;99.90
10314;DHT22;5202;49.138;10.090;2023-09-08T04:05:59;12.00;99.90
10314;DHT22;5202;49.138;10.090;2023-09-08T04:08:27;12.00;99.90
10314;DHT22;5202;49.138;10.090;2023-09-08T04:10:56;11.90;99.90
10314;DHT22;5202;49.138;10.090;2023-09-08T04:13:25;11.90;99.90
10314;DHT22;5202;49.138;10.090;2023-09-08T04:15:55;11.90;99.90
10314;DHT22;5202;49.138;10.090;2023-09-08T04:18:23;11.90;99.90
10314;DHT22;5202;49.138;10.090;2023-09-08T04:20:52;11.90;99.90
10314;DHT22;5202;49.138;10.090;2023-09-08T04:23:21;11.80;99.90
10314;DHT22;5202;49.138;10.090;2023-09-08T04:25:49;11.80;99.90
10314;DHT22;5202;49.138;10.090;2023-09-08T04:28:18;11.80;99.90
10314;DHT22;5202;49.138;10.090;2023-09-08T04:30:46;11.80;99.90
10314;DHT22;5202;49.138;10.090;2023-09-08T04:33:16;11.80;99.90
10314;DHT22;5202;49.138;10.090;2023-09-08T04:35:44;11.80;99.90
10314;DHT22;5202;49.138;10.090;2023-09-08T04:38:13;11.80;99.90
10314;DHT22;5202;49.138;10.090;2023-09-08T04:40:41;11.90;99.90
10314;DHT22;5202;49.138;10.090;2023-09-08T04:43:10;11.90;99.90
10314;DHT22;5202;49.138;10.090;2023-09-08T04:45:38;12.00;99.90
10314;DHT22;5202;49.138;10.090;2023-09-08T04:48:08;12.00;99.90
10314;DHT22;5202;49.138;10.090;2023-09-08T04:50:40;12.00;99.90
10314;DHT22;5202;49.138;10.090;2023-09-08T04:53:08;11.90;99.90
10314;DHT22;5202;49.138;10.090;2023-09-08T04:55:37;11.90;99.90
10314;DHT22;5202;49.138;10.090;2023-09-08T04:58:05;11.80;99.90
10314;DHT22;5202;49.138;10.090;2023-09-08T05:00:33;11.80;99.90
10314;DHT22;5202;49.138;10.090;2023-09-08T05:03:01;11.90;99.90
10314;DHT22;5202;49.138;10.090;2023-09-08T05:05:30;11.90;99.90
10314;DHT22;5202;49.138;10.090;2023-09-08T05:08:00;11.90;99.90
10314;DHT22;5202;49.138;10.090;2023-09-08T05:10:28;11.90;99.90
10314;DHT22;5202;49.138;10.090;2023-09-08T05:12:57;11.90;99.90
10314;DHT22;5202;49.138;10.090;2023-09-08T05:15:26;11.90;99.90
10314;DHT22;5202;49.138;10.090;2023-09-08T05:17:55;11.90;99.90
10314;DHT22;5202;49.138;10.090;2023-09-08T05:20:25;12.00;99.90
10314;DHT22;5202;49.138;10.090;2023-09-08T05:22:53;12.10;99.90
10314;DHT22;5202;49.138;10.090;2023-09-08T05:25:23;12.20;99.90
10314;DHT22;5202;49.138;10.090;2023-09-08T05:27:52;12.40;99.90
10314;DHT22;5202;49.138;10.090;2023-09-08T05:30:20;12.50;99.90
10314;DHT22;5202;49.138;10.090;2023-09-08T05:32:49;12.60;99.90
10314;DHT22;5202;49.138;10.090;2023-09-08T05:35:17;12.70;99.90
10314;DHT22;5202;49.138;10.090;2023-09-08T05:37:48;12.80;99.90
10314;DHT22;5202;49.138;10.090;2023-09-08T05:40:17;12.80;99.90
10314;DHT22;5202;49.138;10.090;2023-09-08T05:42:49;12.90;99.90
10314;DHT22;5202;49.138;10.090;2023-09-08T05:45:18;13.00;99.90
10314;DHT22;5202;49.138;10.090;2023-09-08T05:47:47;13.10;99.90
10314;DHT22;5202;49.138;10.090;2023-09-08T05:50:18;13.10;99.90
10314;DHT22;5202;49.138;10.090;2023-09-08T05:52:47;13.20;99.90
10314;DHT22;5202;49.138;10.090;2023-09-08T05:55:16;13.20;99.90
10314;DHT22;5202;49.138;10.090;2023-09-08T05:57:45;13.30;99.90
10314;DHT22;5202;49.138;10.090;2023-09-08T06:00:16;13.30;99.90
10314;DHT22;5202;49.138;10.090;2023-09-08T06:02:48;13.40;99.90
10314;DHT22;5202;49.138;10.090;2023-09-08T06:05:17;13.40;99.90
10314;DHT22;5202;49.138;10.090;2023-09-08T06:07:49;13.60;99.90
10314;DHT22;5202;49.138;10.090;2023-09-08T06:10:33;13.70;99.90
10314;DHT22;5202;49.138;10.090;2023-09-08T06:13:02;13.80;99.90
10314;DHT22;5202;49.138;10.090;2023-09-08T06:15:32;14.00;99.90
10314;DHT22;5202;49.138;10.090;2023-09-08T06:18:00;14.10;99.90
10314;DHT22;5202;49.138;10.090;2023-09-08T06:20:28;14.20;99.90
10314;DHT22;5202;49.138;10.090;2023-09-08T06:22:57;14.30;99.90
10314;DHT22;5202;49.138;10.090;2023-09-08T06:25:26;14.40;99.90
10314;DHT22;5202;49.138;10.090;2023-09-08T06:27:56;14.50;99.90
10314;DHT22;5202;49.138;10.090;2023-09-08T06:30:25;14.70;99.90
10314;DHT22;5202;49.138;10.090;2023-09-08T06:32:55;14.80;99.90
10314;DHT22;5202;49.138;10.090;2023-09-08T06:35:26;14.90;99.90
10314;DHT22;5202;49.138;10.090;2023-09-08T06:37:55;15.00;99.90
10314;DHT22;5202;49.138;10.090;2023-09-08T06:40:25;15.10;99.90
10314;DHT22;5202;49.138;10.090;2023-09-08T06:42:54;15.30;99.90
10314;DHT22;5202;49.138;10.090;2023-09-08T06:45:47;15.40;99.90
10314;DHT22;5202;49.138;10.090;2023-09-08T06:48:18;15.50;99.90
10314;DHT22;5202;49.138;10.090;2023-09-08T06:50:47;15.70;99.90
10314;DHT22;5202;49.138;10.090;2023-09-08T06:53:15;15.80;99.90
10314;DHT22;5202;49.138;10.090;2023-09-08T06:55:44;15.90;99.90
10314;DHT22;5202;49.138;10.090;2023-09-08T06:58:13;16.10;99.90
10314;DHT22;5202;49.138;10.090;2023-09-08T07:00:42;16.30;99.90
10314;DHT22;5202;49.138;10.090;2023-09-08T07:03:11;16.50;99.90
10314;DHT22;5202;49.138;10.090;2023-09-08T07:05:41;16.70;99.90
10314;DHT22;5202;49.138;10.090;2023-09-08T07:08:11;16.90;99.90
10314;DHT22;5202;49.138;10.090;2023-09-08T07:10:40;17.10;99.90
10314;DHT22;5202;49.138;10.090;2023-09-08T07:13:08;17.30;99.90
10314;DHT22;5202;49.138;10.090;2023-09-08T07:15:37;17.50;99.90
10314;DHT22;5202;49.138;10.090;2023-09-08T07:18:05;17.70;99.90
10314;DHT22;5202;49.138;10.090;2023-09-08T07:20:35;17.90;99.90
10314;DHT22;5202;49.138;10.090;2023-09-08T07:23:05;18.10;99.90
10314;DHT22;5202;49.138;10.090;2023-09-08T07:25:34;18.20;99.90
10314;DHT22;5202;49.138;10.090;2023-09-08T07:28:04;18.40;99.90
10314;DHT22;5202;49.138;10.090;2023-09-08T07:30:32;18.60;99.90
10314;DHT22;5202;49.138;10.090;2023-09-08T07:33:01;18.70;99.90
10314;DHT22;5202;49.138;10.090;2023-09-08T07:35:32;18.80;99.50
10314;DHT22;5202;49.138;10.090;2023-09-08T07:38:06;19.00;99.50
10314;DHT22;5202;49.138;10.090;2023-09-08T07:40:35;19.10;99.50
10314;DHT22;5202;49.138;10.090;2023-09-08T07:43:05;19.20;99.20
10314;DHT22;5202;49.138;10.090;2023-09-08T07:45:33;19.40;99.50
10314;DHT22;5202;49.138;10.090;2023-09-08T07:48:02;19.50;99.20
10314;DHT22;5202;49.138;10.090;2023-09-08T07:50:31;19.70;99.20
10314;DHT22;5202;49.138;10.090;2023-09-08T07:52:59;19.80;98.40
10314;DHT22;5202;49.138;10.090;2023-09-08T07:55:29;19.90;97.80
10314;DHT22;5202;49.138;10.090;2023-09-08T07:57:57;20.00;97.90
10314;DHT22;5202;49.138;10.090;2023-09-08T08:00:26;20.10;98.20
10314;DHT22;5202;49.138;10.090;2023-09-08T08:02:55;20.20;97.70
10314;DHT22;5202;49.138;10.090;2023-09-08T08:05:25;20.40;97.40
10314;DHT22;5202;49.138;10.090;2023-09-08T08:07:54;20.50;97.30
10314;DHT22;5202;49.138;10.090;2023-09-08T08:10:22;20.60;97.00
10314;DHT22;5202;49.138;10.090;2023-09-08T08:12:52;20.70;96.80
10314;DHT22;5202;49.138;10.090;2023-09-08T08:15:22;20.80;97.00
10314;DHT22;5202;49.138;10.090;2023-09-08T08:17:51;20.90;97.20
10314;DHT22;5202;49.138;10.090;2023-09-08T08:20:19;21.00;96.60
10314;DHT22;5202;49.138;10.090;2023-09-08T08:22:48;21.10;96.40
10314;DHT22;5202;49.138;10.090;2023-09-08T08:25:16;21.20;96.20
10314;DHT22;5202;49.138;10.090;2023-09-08T08:27:45;21.30;96.10
10314;DHT22;5202;49.138;10.090;2023-09-08T08:30:14;21.40;96.50
10314;DHT22;5202;49.138;10.090;2023-09-08T08:32:43;21.50;96.20
10314;DHT22;5202;49.138;10.090;2023-09-08T08:35:13;21.50;94.90
10314;DHT22;5202;49.138;10.090;2023-09-08T08:37:41;21.40;94.80
10314;DHT22;5202;49.138;10.090;2023-09-08T08:40:11;21.60;95.60
10314;DHT22;5202;49.138;10.090;2023-09-08T08:42:40;21.70;96.00
10314;DHT22;5202;49.138;10.090;2023-09-08T08:45:10;21.80;95.20
10314;DHT22;5202;49.138;10.090;2023-09-08T08:47:41;22.00;96.10
10314;DHT22;5202;49.138;10.090;2023-09-08T08:50:11;22.10;95.60
10314;DHT22;5202;49.138;10.090;2023-09-08T08:52:40;22.20;95.40
10314;DHT22;5202;49.138;10.090;2023-09-08T08:55:09;22.30;94.50
10314;DHT22;5202;49.138;10.090;2023-09-08T08:57:39;22.40;94.80
10314;DHT22;5202;49.138;10.090;2023-09-08T09:00:09;22.50;94.40
10314;DHT22;5202;49.138;10.090;2023-09-08T09:02:42;22.60;95.30
10314;DHT22;5202;49.138;10.090;2023-09-08T09:05:19;22.70;95.20
10314;DHT22;5202;49.138;10.090;2023-09-08T09:07:48;22.80;95.10
10314;DHT22;5202;49.138;10.090;2023-09-08T09:10:18;22.90;94.80
10314;DHT22;5202;49.138;10.090;2023-09-08T09:12:46;22.90;94.20
10314;DHT22;5202;49.138;10.090;2023-09-08T09:15:15;23.00;94.60
10314;DHT22;5202;49.138;10.090;2023-09-08T09:18:02;23.10;94.70
10314;DHT22;5202;49.138;10.090;2023-09-08T09:20:32;23.20;94.00
10314;DHT22;5202;49.138;10.090;2023-09-08T09:23:00;23.30;94.10
10314;DHT22;5202;49.138;10.090;2023-09-08T09:25:31;23.40;94.00
10314;DHT22;5202;49.138;10.090;2023-09-08T09:28:01;23.50;93.90
10314;DHT22;5202;49.138;10.090;2023-09-08T09:30:46;23.60;93.50
10314;DHT22;5202;49.138;10.090;2023-09-08T09:33:18;23.70;93.10
10314;DHT22;5202;49.138;10.090;2023-09-08T09:35:47;23.70;93.40
10314;DHT22;5202;49.138;10.090;2023-09-08T09:38:18;23.80;93.70
10314;DHT22;5202;49.138;10.090;2023-09-08T09:40:48;23.90;92.50
10314;DHT22;5202;49.138;10.090;2023-09-08T09:43:17;23.90;93.00
10314;DHT22;5202;49.138;10.090;2023-09-08T09:45:49;24.00;93.00
10314;DHT22;5202;49.138;10.090;2023-09-08T09:48:21;24.00;92.00
10314;DHT22;5202;49.138;10.090;2023-09-08T09:50:50;24.10;93.00
10314;DHT22;5202;49.138;10.090;2023-09-08T09:53:20;24.20;92.90
10314;DHT22;5202;49.138;10.090;2023-09-08T09:55:51;24.30;93.10
10314;DHT22;5202;49.138;10.090;2023-09-08T09:58:20;24.50;92.90
10314;DHT22;5202;49.138;10.090;2023-09-08T10:00:50;24.60;92.60
10314;DHT22;5202;49.138;10.090;2023-09-08T10:03:21;24.80;92.40
10314;DHT22;5202;49.138;10.090;2023-09-08T10:06:05;24.80;91.70
10314;DHT22;5202;49.138;10.090;2023-09-08T10:08:34;24.90;92.00
10314;DHT22;5202;49.138;10.090;2023-09-08T10:11:07;25.00;92.00
10314;DHT22;5202;49.138;10.090;2023-09-08T10:13:39;25.10;90.80
10314;DHT22;5202;49.138;10.090;2023-09-08T10:16:09;25.10;92.30
10314;DHT22;5202;49.138;10.090;2023-09-08T10:18:44;25.30;92.50
10314;DHT22;5202;49.138;10.090;2023-09-08T10:21:16;25.40;91.40
10314;DHT22;5202;49.138;10.090;2023-09-08T10:23:51;25.50;90.70
10314;DHT22;5202;49.138;10.090;2023-09-08T10:26:27;25.60;91.50
10314;DHT22;5202;49.138;10.090;2023-09-08T10:28:55;25.80;91.50
10314;DHT22;5202;49.138;10.090;2023-09-08T10:31:26;25.90;91.10
10314;DHT22;5202;49.138;10.090;2023-09-08T10:33:57;26.00;90.90
10314;DHT22;5202;49.138;10.090;2023-09-08T10:36:26;26.10;90.80
10314;DHT22;5202;49.138;10.090;2023-09-08T10:39:28;26.10;90.40
10314;DHT22;5202;49.138;10.090;2023-09-08T10:42:20;25.90;86.80
10314;DHT22;5202;49.138;10.090;2023-09-08T10:44:59;25.80;88.70
10314;DHT22;5202;49.138;10.090;2023-09-08T10:47:32;26.00;89.70
10314;DHT22;5202;49.138;10.090;2023-09-08T10:50:06;26.20;90.20
10314;DHT22;5202;49.138;10.090;2023-09-08T10:52:35;26.40;90.70
10314;DHT22;5202;49.138;10.090;2023-09-08T10:55:04;26.50;87.90
10314;DHT22;5202;49.138;10.090;2023-09-08T10:57:34;26.70;89.60
10314;DHT22;5202;49.138;10.090;2023-09-08T11:00:04;26.80;88.80
10314;DHT22;5202;49.138;10.090;2023-09-08T11:02:40;27.00;89.80
10314;DHT22;5202;49.138;10.090;2023-09-08T11:05:12;27.20;88.90
10314;DHT22;5202;49.138;10.090;2023-09-08T11:07:43;27.30;89.70
10314;DHT22;5202;49.138;10.090;2023-09-08T11:10:12;27.40;87.00
10314;DHT22;5202;49.138;10.090;2023-09-08T11:12:41;27.40;87.00
10314;DHT22;5202;49.138;10.090;2023-09-08T11:15:10;27.50;85.90
10314;DHT22;5202;49.138;10.090;2023-09-08T11:17:38;27.30;84.10
10314;DHT22;5202;49.138;10.090;2023-09-08T11:20:11;27.40;87.20
10314;DHT22;5202;49.138;10.090;2023-09-08T11:22:40;27.60;86.60
10314;DHT22;5202;49.138;10.090;2023-09-08T11:25:09;27.90;86.70
10314;DHT22;5202;49.138;10.090;2023-09-08T11:27:38;28.10;86.20
10314;DHT22;5202;49.138;10.090;2023-09-08T11:30:08;28.10;87.40
10314;DHT22;5202;49.138;10.090;2023-09-08T11:32:37;28.30;85.40
10314;DHT22;5202;49.138;10.090;2023-09-08T11:35:07;28.30;82.30
10314;DHT22;5202;49.138;10.090;2023-09-08T11:37:39;28.40;84.00
10314;DHT22;5202;49.138;10.090;2023-09-08T11:40:09;28.60;84.60
10314;DHT22;5202;49.138;10.090;2023-09-08T11:42:40;28.70;81.40
10314;DHT22;5202;49.138;10.090;2023-09-08T11:45:12;28.70;81.50
10314;DHT22;5202;49.138;10.090;2023-09-08T11:47:41;29.00;82.60
10314;DHT22;5202;49.138;10.090;2023-09-08T11:50:11;29.10;82.30
10314;DHT22;5202;49.138;10.090;2023-09-08T11:52:46;29.30;84.60
10314;DHT22;5202;49.138;10.090;2023-09-08T11:55:17;29.60;84.80
10314;DHT22;5202;49.138;10.090;2023-09-08T11:57:48;29.50;80.20
10314;DHT22;5202;49.138;10.090;2023-09-08T12:00:19;29.60;81.00
10314;DHT22;5202;49.138;10.090;2023-09-08T12:02:50;29.80;80.70
10314;DHT22;5202;49.138;10.090;2023-09-08T12:05:23;29.90;81.20
10314;DHT22;5202;49.138;10.090;2023-09-08T12:07:56;29.90;78.30
10314;DHT22;5202;49.138;10.090;2023-09-08T12:10:25;29.90;79.10
10314;DHT22;5202;49.138;10.090;2023-09-08T12:12:54;30.10;78.00
10314;DHT22;5202;49.138;10.090;2023-09-08T12:15:30;30.20;78.10
10314;DHT22;5202;49.138;10.090;2023-09-08T12:18:00;30.30;76.50
10314;DHT22;5202;49.138;10.090;2023-09-08T12:20:29;30.40;76.60
10314;DHT22;5202;49.138;10.090;2023-09-08T12:23:00;30.60;76.60
10314;DHT22;5202;49.138;10.090;2023-09-08T12:25:30;30.70;76.80
10314;DHT22;5202;49.138;10.090;2023-09-08T12:28:01;30.80;79.50
10314;DHT22;5202;49.138;10.090;2023-09-08T12:30:31;31.00;80.80
10314;DHT22;5202;49.138;10.090;2023-09-08T12:33:02;31.20;81.80
10314;DHT22;5202;49.138;10.090;2023-09-08T12:35:30;31.20;78.30
10314;DHT22;5202;49.138;10.090;2023-09-08T12:38:02;31.40;78.30
10314;DHT22;5202;49.138;10.090;2023-09-08T12:40:34;31.50;76.60
10314;DHT22;5202;49.138;10.090;2023-09-08T12:43:03;31.60;74.10
10314;DHT22;5202;49.138;10.090;2023-09-08T12:45:52;31.60;71.80
10314;DHT22;5202;49.138;10.090;2023-09-08T12:48:21;31.50;73.20
10314;DHT22;5202;49.138;10.090;2023-09-08T12:50:50;31.60;73.40
10314;DHT22;5202;49.138;10.090;2023-09-08T12:53:19;31.70;74.00
10314;DHT22;5202;49.138;10.090;2023-09-08T12:55:50;31.80;74.00
10314;DHT22;5202;49.138;10.090;2023-09-08T12:58:19;32.00;74.20
10314;DHT22;5202;49.138;10.090;2023-09-08T13:00:47;32.10;72.40
10314;DHT22;5202;49.138;10.090;2023-09-08T13:03:16;31.90;69.30
10314;DHT22;5202;49.138;10.090;2023-09-08T13:05:44;31.80;71.40
10314;DHT22;5202;49.138;10.090;2023-09-08T13:08:16;31.80;72.90
10314;DHT22;5202;49.138;10.090;2023-09-08T13:10:46;32.00;73.30
10314;DHT22;5202;49.138;10.090;2023-09-08T13:13:15;31.90;71.70
10314;DHT22;5202;49.138;10.090;2023-09-08T13:15:43;32.00;71.00
10314;DHT22;5202;49.138;10.090;2023-09-08T13:18:11;32.10;73.00
10314;DHT22;5202;49.138;10.090;2023-09-08T13:20:40;32.30;72.10
10314;DHT22;5202;49.138;10.090;2023-09-08T13:23:09;32.30;72.20
10314;DHT22;5202;49.138;10.090;2023-09-08T13:25:37;32.50;71.90
10314;DHT22;5202;49.138;10.090;2023-09-08T13:28:08;32.60;70.80
10314;DHT22;5202;49.138;10.090;2023-09-08T13:30:36;32.60;69.40
10314;DHT22;5202;49.138;10.090;2023-09-08T13:33:05;32.60;68.60
10314;DHT22;5202;49.138;10.090;2023-09-08T13:35:34;32.70;70.40
10314;DHT22;5202;49.138;10.090;2023-09-08T13:38:03;32.80;68.80
10314;DHT22;5202;49.138;10.090;2023-09-08T13:40:31;32.80;68.80
10314;DHT22;5202;49.138;10.090;2023-09-08T13:43:00;32.90;68.30
10314;DHT22;5202;49.138;10.090;2023-09-08T13:45:30;32.80;67.30
10314;DHT22;5202;49.138;10.090;2023-09-08T13:47:58;32.90;69.20
10314;DHT22;5202;49.138;10.090;2023-09-08T13:50:27;32.90;69.80
10314;DHT22;5202;49.138;10.090;2023-09-08T13:52:56;33.00;70.80
10314;DHT22;5202;49.138;10.090;2023-09-08T13:55:26;33.10;68.40
10314;DHT22;5202;49.138;10.090;2023-09-08T13:57:57;32.90;66.70
10314;DHT22;5202;49.138;10.090;2023-09-08T14:00:29;32.90;67.90
10314;DHT22;5202;49.138;10.090;2023-09-08T14:02:58;33.00;68.80
10314;DHT22;5202;49.138;10.090;2023-09-08T14:05:33;33.10;66.90
10314;DHT22;5202;49.138;10.090;2023-09-08T14:08:05;33.10;67.60
10314;DHT22;5202;49.138;10.090;2023-09-08T14:10:49;33.00;66.70
10314;DHT22;5202;49.138;10.090;2023-09-08T14:13:31;33.10;65.30
10314;DHT22;5202;49.138;10.090;2023-09-08T14:16:02;33.20;66.20
10314;DHT22;5202;49.138;10.090;2023-09-08T14:18:30;33.20;66.40
10314;DHT22;5202;49.138;10.090;2023-09-08T14:20:59;33.20;63.20
10314;DHT22;5202;49.138;10.090;2023-09-08T14:23:27;33.20;65.40
10314;DHT22;5202;49.138;10.090;2023-09-08T14:25:56;33.20;61.60
10314;DHT22;5202;49.138;10.090;2023-09-08T14:28:24;33.20;64.00
10314;DHT22;5202;49.138;10.090;2023-09-08T14:30:53;33.30;62.10
10314;DHT22;5202;49.138;10.090;2023-09-08T14:33:23;33.50;62.10
10314;DHT22;5202;49.138;10.090;2023-09-08T14:35:51;33.50;61.20
10314;DHT22;5202;49.138;10.090;2023-09-08T14:38:21;33.60;61.90
10314;DHT22;5202;49.138;10.090;2023-09-08T14:40:57;33.60;60.60
10314;DHT22;5202;49.138;10.090;2023-09-08T14:43:27;33.60;59.50
10314;DHT22;5202;49.138;10.090;2023-09-08T14:45:56;33.70;61.10
10314;DHT22;5202;49.138;10.090;2023-09-08T14:48:26;33.80;63.00
10314;DHT22;5202;49.138;10.090;2023-09-08T14:50:56;33.90;61.80
10314;DHT22;5202;49.138;10.090;2023-09-08T14:53:25;33.80;60.20
10314;DHT22;5202;49.138;10.090;2023-09-08T14:55:55;33.80;61.90
10314;DHT22;5202;49.138;10.090;2023-09-08T14:58:25;33.70;61.70
10314;DHT22;5202;49.138;10.090;2023-09-08T15:00:58;33.60;61.50
10314;DHT22;5202;49.138;10.090;2023-09-08T15:03:32;33.60;60.20
10314;DHT22;5202;49.138;10.090;2023-09-08T15:06:02;33.50;62.80
10314;DHT22;5202;49.138;10.090;2023-09-08T15:08:33;33.40;62.10
10314;DHT22;5202;49.138;10.090;2023-09-08T15:11:02;33.50;62.10
10314;DHT22;5202;49.138;10.090;2023-09-08T15:13:30;33.50;61.70
10314;DHT22;5202;49.138;10.090;2023-09-08T15:15:59;33.40;60.40
10314;DHT22;5202;49.138;10.090;2023-09-08T15:18:27;33.30;61.20
10314;DHT22;5202;49.138;10.090;2023-09-08T15:20:57;33.20;61.20
10314;DHT22;5202;49.138;10.090;2023-09-08T15:23:25;33.20;61.60
10314;DHT22;5202;49.138;10.090;2023-09-08T15:25:55;33.20;62.40
10314;DHT22;5202;49.138;10.090;2023-09-08T15:28:25;33.20;62.50
10314;DHT22;5202;49.138;10.090;2023-09-08T15:30:54;33.20;62.30
10314;DHT22;5202;49.138;10.090;2023-09-08T15:33:23;33.10;60.40
10314;DHT22;5202;49.138;10.090;2023-09-08T15:35:52;33.00;60.00
10314;DHT22;5202;49.138;10.090;2023-09-08T15:38:23;32.90;60.10
10314;DHT22;5202;49.138;10.090;2023-09-08T15:41:16;32.80;59.50
10314;DHT22;5202;49.138;10.090;2023-09-08T15:43:47;32.80;59.70
10314;DHT22;5202;49.138;10.090;2023-09-08T15:46:18;32.70;59.60
10314;DHT22;5202;49.138;10.090;2023-09-08T15:48:47;32.60;59.50